createdAt,value
2022-08-20T00:00:00.002Z,10.98
2022-08-20T00:01:03.327Z,12.40
2022-08-20T00:02:05.794Z,10.43
2022-08-20T00:03:11.054Z,11.48
2022-08-20T00:04:13.496Z,9.45
2022-08-20T00:05:18.116Z,12.15
2022-08-20T00:06:23.990Z,9.45
2022-08-20T00:07:27.190Z,9.32
2022-08-20T00:08:31.165Z,10.35
2022-08-20T00:09:36.871Z,10.52
2022-08-20T00:10:42.685Z,10.95
2022-08-20T00:11:48.422Z,9.70
2022-08-20T00:12:50.920Z,9.02
2022-08-20T00:13:56.322Z,9.60
2022-08-20T00:14:58.720Z,10.32
2022-08-20T00:16:02.616Z,14.02
2022-08-20T00:17:05.780Z,11.50
2022-08-20T00:18:10.081Z,9.35
2022-08-20T00:19:15.550Z,9.35
2022-08-20T00:20:20.445Z,9.30
2022-08-20T00:21:25.531Z,10.95
2022-08-20T00:22:28.174Z,9.30
2022-08-20T00:23:33.074Z,10.18
2022-08-20T00:24:35.458Z,7.82
2022-08-20T00:25:38.705Z,8.00
2022-08-20T00:26:52.240Z,9.40
2022-08-20T00:27:56.822Z,8.90
2022-08-20T00:28:59.062Z,7.97
2022-08-20T00:30:02.363Z,8.75
2022-08-20T00:31:07.332Z,8.30
2022-08-20T00:32:10.503Z,9.43
2022-08-20T00:33:15.888Z,9.50
2022-08-20T00:34:19.832Z,8.20
2022-08-20T00:35:26.036Z,7.63
2022-08-20T00:36:32.499Z,7.63
2022-08-20T00:37:35.244Z,8.77
2022-08-20T00:38:41.239Z,9.40
2022-08-20T00:39:43.653Z,7.57
2022-08-20T00:40:51.212Z,7.18
2022-08-20T00:41:53.325Z,8.27
2022-08-20T00:43:00.422Z,7.60
2022-08-20T00:44:10.211Z,8.50
2022-08-20T00:45:14.003Z,7.15
2022-08-20T00:46:20.182Z,7.35
2022-08-20T00:47:23.620Z,8.25
2022-08-20T00:48:29.106Z,8.70
2022-08-20T00:49:34.155Z,7.03
2022-08-20T00:50:38.228Z,6.70
2022-08-20T00:51:44.999Z,6.55
2022-08-20T00:52:51.509Z,9.40
2022-08-20T00:54:03.410Z,8.48
2022-08-20T00:55:08.422Z,8.35
2022-08-20T00:56:12.715Z,9.88
2022-08-20T00:57:26.305Z,8.68
2022-08-20T00:58:29.109Z,9.10
2022-08-20T00:59:34.811Z,8.43
2022-08-20T01:00:43.117Z,7.05
2022-08-20T01:01:55.255Z,9.15
2022-08-20T01:03:00.699Z,9.95
2022-08-20T01:04:05.749Z,9.35
2022-08-20T01:05:10.681Z,10.40
2022-08-20T01:06:13.859Z,6.88
2022-08-20T01:07:16.034Z,6.75
2022-08-20T01:08:23.349Z,8.93
2022-08-20T01:09:50.596Z,6.50
2022-08-20T01:11:07.116Z,8.32
2022-08-20T01:12:10.048Z,7.57
2022-08-20T01:13:19.045Z,11.82
2022-08-20T01:14:27.045Z,7.30
2022-08-20T01:15:32.802Z,7.13
2022-08-20T01:16:36.658Z,7.75
2022-08-20T01:17:46.320Z,6.95
2022-08-20T01:18:52.625Z,7.40
2022-08-20T01:19:58.453Z,7.38
2022-08-20T01:21:05.940Z,5.97
2022-08-20T01:22:24.626Z,6.55
2022-08-20T01:23:37.622Z,7.18
2022-08-20T01:24:45.964Z,6.80
2022-08-20T01:25:53.677Z,8.57
2022-08-20T01:26:57.797Z,7.15
2022-08-20T01:28:00.534Z,6.80
2022-08-20T01:29:08.704Z,8.85
2022-08-20T01:30:12.123Z,6.30
2022-08-20T01:31:18.516Z,6.53
2022-08-20T01:32:22.721Z,6.50
2022-08-20T01:33:26.534Z,8.68
2022-08-20T01:34:29.846Z,8.25
2022-08-20T01:35:38.193Z,6.15
2022-08-20T01:36:46.315Z,5.47
2022-08-20T01:37:48.999Z,7.78
2022-08-20T01:38:54.818Z,5.15
2022-08-20T01:39:57.230Z,9.52
2022-08-20T01:41:18.342Z,7.55
2022-08-20T01:42:35.919Z,6.28
2022-08-20T01:43:41.948Z,7.25
2022-08-20T01:44:47.208Z,7.00
2022-08-20T01:45:50.398Z,7.63
2022-08-20T01:46:57.799Z,6.15
2022-08-20T01:48:01.180Z,9.18
2022-08-20T01:49:13.613Z,6.07
2022-08-20T01:50:26.177Z,7.07
2022-08-20T01:51:31.365Z,6.05
2022-08-20T01:52:41.325Z,9.63
2022-08-20T01:53:46.687Z,5.32
2022-08-20T01:54:48.963Z,5.88
2022-08-20T01:55:52.164Z,7.38
2022-08-20T01:57:01.653Z,6.07
2022-08-20T01:58:04.481Z,6.57
2022-08-20T01:59:08.102Z,5.97
2022-08-20T02:00:19.097Z,5.40
2022-08-20T02:01:29.931Z,5.72
2022-08-20T02:02:32.436Z,6.85
2022-08-20T02:03:39.722Z,6.28
2022-08-20T02:04:45.293Z,7.57
2022-08-20T02:05:48.429Z,7.20
2022-08-20T02:06:56.567Z,5.63
2022-08-20T02:08:02.344Z,6.07
2022-08-20T02:09:07.209Z,5.03
2022-08-20T02:10:12.492Z,5.28
2022-08-20T02:11:15.640Z,6.65
2022-08-20T02:12:19.491Z,6.90
2022-08-20T02:13:24.808Z,7.00
2022-08-20T02:14:27.958Z,6.32
2022-08-20T02:15:34.993Z,5.43
2022-08-20T02:16:44.432Z,5.07
2022-08-20T02:17:58.885Z,5.70
2022-08-20T02:19:09.459Z,6.68
2022-08-20T02:20:17.122Z,6.25
2022-08-20T02:21:19.271Z,6.63
2022-08-20T02:22:28.442Z,7.95
2022-08-20T02:23:32.002Z,7.90
2022-08-20T02:24:35.543Z,8.60
2022-08-20T02:25:40.310Z,6.60
2022-08-20T02:26:44.417Z,7.43
2022-08-20T02:27:49.301Z,6.82
2022-08-20T02:28:54.986Z,6.55
2022-08-20T02:29:57.124Z,6.53
2022-08-20T02:31:01.633Z,7.20
2022-08-20T02:32:32.250Z,9.18
2022-08-20T02:33:29.427Z,8.52
2022-08-20T02:34:31.724Z,10.65
2022-08-20T02:35:35.160Z,9.95
2022-08-20T02:36:38.368Z,8.80
2022-08-20T02:37:43.549Z,11.30
2022-08-20T02:38:46.909Z,9.32
2022-08-20T02:39:50.158Z,10.68
2022-08-20T02:40:52.903Z,10.40
2022-08-20T02:41:56.016Z,10.60
2022-08-20T02:43:00.839Z,12.45
2022-08-20T02:44:04.948Z,9.10
2022-08-20T02:45:08.194Z,8.48
2022-08-20T02:46:18.978Z,8.93
2022-08-20T02:47:21.116Z,9.48
2022-08-20T02:48:24.514Z,10.15
2022-08-20T02:49:26.662Z,9.40
2022-08-20T02:50:30.334Z,9.60
2022-08-20T02:51:33.346Z,10.88
2022-08-20T02:52:36.440Z,12.18
2022-08-20T02:53:41.814Z,10.13
2022-08-20T02:54:44.936Z,9.35
2022-08-20T02:55:48.157Z,11.55
2022-08-20T02:56:52.078Z,13.77
2022-08-20T02:57:54.788Z,11.07
2022-08-20T02:59:03.662Z,14.20
2022-08-20T03:00:08.412Z,12.50
2022-08-20T03:01:14.003Z,9.60
2022-08-20T03:02:16.293Z,13.95
2022-08-20T03:03:22.488Z,12.13
2022-08-20T03:04:24.679Z,13.18
2022-08-20T03:05:29.535Z,13.85
2022-08-20T03:06:32.016Z,14.60
2022-08-20T03:07:43.737Z,12.88
2022-08-20T03:08:45.850Z,12.25
2022-08-20T03:09:49.022Z,14.88
2022-08-20T03:10:52.176Z,15.23
2022-08-20T03:11:55.309Z,15.98
2022-08-20T03:12:57.429Z,15.80
2022-08-20T03:14:00.543Z,13.25
2022-08-20T03:15:05.268Z,14.35
2022-08-20T03:16:09.305Z,15.60
2022-08-20T03:17:11.579Z,16.20
2022-08-20T03:18:16.351Z,12.63
2022-08-20T03:19:18.510Z,13.98
2022-08-20T03:20:23.935Z,15.15
2022-08-20T03:21:26.759Z,14.00
2022-08-20T03:22:29.965Z,12.93
2022-08-20T03:23:34.074Z,15.23
2022-08-20T03:24:37.733Z,16.13
2022-08-20T03:25:40.919Z,14.30
2022-08-20T03:26:43.392Z,15.75
2022-08-20T03:27:47.202Z,13.88
2022-08-20T03:28:56.202Z,15.77
2022-08-20T03:29:59.402Z,13.25
2022-08-20T03:31:04.086Z,15.00
2022-08-20T03:32:07.936Z,17.30
2022-08-20T03:33:10.357Z,14.60
2022-08-20T03:34:13.580Z,14.38
2022-08-20T03:35:18.590Z,13.38
2022-08-20T03:36:24.214Z,15.50
2022-08-20T03:37:31.454Z,13.75
2022-08-20T03:38:35.126Z,13.85
2022-08-20T03:39:37.312Z,14.57
2022-08-20T03:40:40.941Z,13.15
2022-08-20T03:41:43.050Z,14.05
2022-08-20T03:42:46.371Z,18.00
2022-08-20T03:43:48.630Z,14.13
2022-08-20T03:44:58.637Z,13.05
2022-08-20T03:46:04.732Z,13.88
2022-08-20T03:47:09.430Z,16.25
2022-08-20T03:48:14.965Z,12.07
2022-08-20T03:49:17.214Z,15.35
2022-08-20T03:50:23.624Z,15.65
2022-08-20T03:51:26.079Z,14.13
2022-08-20T03:52:29.692Z,14.02
2022-08-20T03:53:31.900Z,13.20
2022-08-20T03:54:35.469Z,15.25
2022-08-20T03:55:37.586Z,14.18
2022-08-20T03:56:40.714Z,15.20
2022-08-20T03:57:45.093Z,15.00
2022-08-20T03:58:48.129Z,13.23
2022-08-20T03:59:54.847Z,14.85
2022-08-20T04:01:01.727Z,13.65
2022-08-20T04:02:06.394Z,14.70
2022-08-20T04:03:10.668Z,16.25
2022-08-20T04:04:12.953Z,16.70
2022-08-20T04:05:16.108Z,16.15
2022-08-20T04:06:19.399Z,15.18
2022-08-20T04:07:25.889Z,14.38
2022-08-20T04:08:30.480Z,14.85
2022-08-20T04:09:33.065Z,16.85
2022-08-20T04:10:36.644Z,14.93
2022-08-20T04:11:39.321Z,14.93
2022-08-20T04:12:53.007Z,16.98
2022-08-20T04:13:55.453Z,17.15
2022-08-20T04:14:58.610Z,18.85
2022-08-20T04:16:02.122Z,18.55
2022-08-20T04:17:09.988Z,15.93
2022-08-20T04:18:13.357Z,17.23
2022-08-20T04:19:16.509Z,15.63
2022-08-20T04:20:22.818Z,16.58
2022-08-20T04:21:26.131Z,17.15
2022-08-20T04:22:33.161Z,18.75
2022-08-20T04:23:36.459Z,19.33
2022-08-20T04:24:38.589Z,16.90
2022-08-20T04:25:43.353Z,17.75
2022-08-20T04:26:45.579Z,19.65
2022-08-20T04:27:50.537Z,18.25
2022-08-20T04:28:53.070Z,20.02
2022-08-20T04:29:56.215Z,19.98
2022-08-20T04:31:01.421Z,20.88
2022-08-20T04:32:05.929Z,21.08
2022-08-20T04:33:11.197Z,21.33
2022-08-20T04:34:13.469Z,21.75
2022-08-20T04:35:18.406Z,20.15
2022-08-20T04:36:20.494Z,20.95
2022-08-20T04:37:24.508Z,25.95
2022-08-20T04:38:27.865Z,22.58
2022-08-20T04:40:05.628Z,23.25
2022-08-20T04:41:08.958Z,26.48
2022-08-20T04:42:25.487Z,28.02
2022-08-20T04:43:30.574Z,24.40
2022-08-20T04:44:32.981Z,22.73
2022-08-20T04:45:36.118Z,24.90
2022-08-20T04:46:39.385Z,22.67
2022-08-20T04:47:42.658Z,26.70
2022-08-20T04:48:50.460Z,30.02
2022-08-20T04:49:53.795Z,19.92
2022-08-20T04:51:02.605Z,22.25
2022-08-20T04:52:06.271Z,23.13
2022-08-20T04:53:13.016Z,22.35
2022-08-20T04:54:15.137Z,25.90
2022-08-20T04:55:19.194Z,19.40
2022-08-20T04:56:23.879Z,21.52
2022-08-20T04:57:27.439Z,19.88
2022-08-20T04:58:34.834Z,21.75
2022-08-20T04:59:36.918Z,22.35
2022-08-20T05:00:40.715Z,22.20
2022-08-20T05:01:42.929Z,21.60
2022-08-20T05:02:46.243Z,24.92
2022-08-20T05:03:51.346Z,21.15
2022-08-20T05:04:53.443Z,21.15
2022-08-20T05:05:57.624Z,21.50
2022-08-20T05:06:59.763Z,18.67
2022-08-20T05:08:03.210Z,18.90
2022-08-20T05:09:06.351Z,22.27
2022-08-20T05:10:11.207Z,24.13
2022-08-20T05:11:36.143Z,23.20
2022-08-20T05:12:38.074Z,25.48
2022-08-20T05:13:40.840Z,21.67
2022-08-20T05:14:43.949Z,25.60
2022-08-20T05:15:46.107Z,26.42
2022-08-20T05:16:50.682Z,24.00
2022-08-20T05:17:56.642Z,21.02
2022-08-20T05:19:01.318Z,19.70
2022-08-20T05:20:04.289Z,19.23
2022-08-20T05:21:07.695Z,25.58
2022-08-20T05:22:09.796Z,20.05
2022-08-20T05:23:14.552Z,20.58
2022-08-20T05:24:16.889Z,19.73
2022-08-20T05:25:21.789Z,19.83
2022-08-20T05:26:26.374Z,20.75
2022-08-20T05:27:30.126Z,24.63
2022-08-20T05:28:32.930Z,20.20
2022-08-20T05:29:40.079Z,20.77
2022-08-20T05:30:45.088Z,19.70
2022-08-20T05:31:50.891Z,18.55
2022-08-20T05:32:53.097Z,16.67
2022-08-20T05:33:57.790Z,17.88
2022-08-20T05:35:01.532Z,18.95
2022-08-20T05:36:07.396Z,18.80
2022-08-20T05:37:10.392Z,21.38
2022-08-20T05:38:18.147Z,18.20
2022-08-20T05:39:21.989Z,18.92
2022-08-20T05:40:25.612Z,18.77
2022-08-20T05:41:30.407Z,18.40
2022-08-20T05:42:33.852Z,17.55
2022-08-20T05:43:37.032Z,18.05
2022-08-20T05:44:39.275Z,16.65
2022-08-20T05:45:44.534Z,20.33
2022-08-20T05:46:48.991Z,19.48
2022-08-20T05:47:53.406Z,21.70
2022-08-20T05:49:00.324Z,19.30
2022-08-20T05:50:05.542Z,19.92
2022-08-20T05:51:12.098Z,18.13
2022-08-20T05:52:18.430Z,18.95
2022-08-20T05:53:23.116Z,18.05
2022-08-20T05:54:25.807Z,18.98
2022-08-20T05:55:29.991Z,18.10
2022-08-20T05:56:32.535Z,18.73
2022-08-20T05:57:35.957Z,16.65
2022-08-20T05:58:38.233Z,17.38
2022-08-20T05:59:41.408Z,16.02
2022-08-20T06:00:43.512Z,17.90
2022-08-20T06:01:46.706Z,17.90
2022-08-20T06:03:07.480Z,18.77
2022-08-20T06:04:25.370Z,16.52
2022-08-20T06:05:28.957Z,16.27
2022-08-20T06:06:44.563Z,18.92
2022-08-20T06:07:50.687Z,16.40
2022-08-20T06:08:57.845Z,17.38
2022-08-20T06:10:01.419Z,18.30
2022-08-20T06:11:05.428Z,17.73
2022-08-20T06:12:08.997Z,19.33
2022-08-20T06:13:14.045Z,17.17
2022-08-20T06:14:17.686Z,19.35
2022-08-20T06:15:21.052Z,18.35
2022-08-20T06:16:29.054Z,19.48
2022-08-20T06:17:39.425Z,18.35
2022-08-20T06:18:42.843Z,18.77
2022-08-20T06:19:47.030Z,19.38
2022-08-20T06:20:51.692Z,18.85
2022-08-20T06:21:54.152Z,17.95
2022-08-20T06:22:57.596Z,18.30
2022-08-20T06:24:01.635Z,19.20
2022-08-20T06:25:07.395Z,21.13
2022-08-20T06:26:09.600Z,19.98
2022-08-20T06:27:15.698Z,19.48
2022-08-20T06:28:19.474Z,17.73
2022-08-20T06:29:21.588Z,22.10
2022-08-20T06:30:25.470Z,20.10
2022-08-20T06:31:27.973Z,19.90
2022-08-20T06:32:32.710Z,20.70
2022-08-20T06:33:35.127Z,16.33
2022-08-20T06:34:38.371Z,19.13
2022-08-20T06:35:55.918Z,19.38
2022-08-20T06:36:58.939Z,21.25
2022-08-20T06:38:02.119Z,18.58
2022-08-20T06:39:04.329Z,17.08
2022-08-20T06:40:11.123Z,17.00
2022-08-20T06:41:14.180Z,20.13
2022-08-20T06:42:21.021Z,22.00
2022-08-20T06:43:24.380Z,19.00
2022-08-20T06:44:28.520Z,19.42
2022-08-20T06:45:33.914Z,17.38
2022-08-20T06:46:37.450Z,18.30
2022-08-20T06:47:42.209Z,18.10
2022-08-20T06:48:44.423Z,20.25
2022-08-20T06:49:48.733Z,17.80
2022-08-20T06:50:50.935Z,17.92
2022-08-20T06:51:55.481Z,18.80
2022-08-20T06:52:59.757Z,18.77
2022-08-20T06:54:01.958Z,17.70
2022-08-20T06:55:05.879Z,17.17
2022-08-20T06:56:09.083Z,15.65
2022-08-20T06:57:11.284Z,18.95
2022-08-20T06:58:22.243Z,18.55
2022-08-20T06:59:37.127Z,14.43
2022-08-20T07:00:43.703Z,19.15
2022-08-20T07:01:46.234Z,18.35
2022-08-20T07:02:49.484Z,15.38
2022-08-20T07:03:55.697Z,13.45
2022-08-20T07:04:59.628Z,12.68
2022-08-20T07:06:01.891Z,16.25
2022-08-20T07:07:06.714Z,13.93
2022-08-20T07:08:09.694Z,14.60
2022-08-20T07:09:12.841Z,14.23
2022-08-20T07:10:15.870Z,13.35
2022-08-20T07:11:24.932Z,15.35
2022-08-20T07:12:29.863Z,12.45
2022-08-20T07:13:33.128Z,12.45
2022-08-20T07:14:35.911Z,14.30
2022-08-20T07:15:39.855Z,9.85
2022-08-20T07:16:42.143Z,11.13
2022-08-20T07:17:50.386Z,10.05
2022-08-20T07:18:52.585Z,11.63
2022-08-20T07:19:55.806Z,14.90
2022-08-20T07:20:58.528Z,11.98
2022-08-20T07:22:01.695Z,11.23
2022-08-20T07:23:12.016Z,8.50
2022-08-20T07:24:15.225Z,10.50
2022-08-20T07:25:19.757Z,8.95
2022-08-20T07:26:23.644Z,9.68
2022-08-20T07:27:25.890Z,12.63
2022-08-20T07:28:29.716Z,9.40
2022-08-20T07:29:46.812Z,8.82
2022-08-20T07:31:13.844Z,8.55
2022-08-20T07:32:36.842Z,8.48
2022-08-20T07:33:41.337Z,11.98
2022-08-20T07:34:43.588Z,10.05
2022-08-20T07:35:49.023Z,9.38
2022-08-20T07:36:52.195Z,10.63
2022-08-20T07:37:54.926Z,14.93
2022-08-20T07:38:59.580Z,10.82
2022-08-20T07:40:12.134Z,12.27
2022-08-20T07:41:15.894Z,11.50
2022-08-20T07:42:18.052Z,12.65
2022-08-20T07:43:23.213Z,11.30
2022-08-20T07:44:28.487Z,10.52
2022-08-20T07:45:34.264Z,9.95
2022-08-20T07:46:37.386Z,9.45
2022-08-20T07:47:41.625Z,10.35
2022-08-20T07:48:49.606Z,11.35
2022-08-20T07:49:51.781Z,8.85
2022-08-20T07:50:55.984Z,8.93
2022-08-20T07:51:58.419Z,10.18
2022-08-20T07:53:02.002Z,9.32
2022-08-20T07:54:06.851Z,10.90
2022-08-20T07:55:11.378Z,8.10
2022-08-20T07:56:16.861Z,7.45
2022-08-20T07:57:19.103Z,6.38
2022-08-20T07:58:23.961Z,8.80
2022-08-20T08:00:35.414Z,7.90
2022-08-20T08:01:38.663Z,6.40
2022-08-20T08:02:41.000Z,7.10
2022-08-20T08:03:50.098Z,8.02
2022-08-20T08:04:52.889Z,9.40
2022-08-20T08:05:57.141Z,6.72
2022-08-20T08:07:00.680Z,7.47
2022-08-20T08:08:08.763Z,8.00
2022-08-20T08:10:25.957Z,6.93
2022-08-20T08:11:29.868Z,6.20
2022-08-20T08:12:39.756Z,6.68
2022-08-20T08:13:43.556Z,8.60
2022-08-20T08:14:50.507Z,7.70
2022-08-20T08:15:57.488Z,6.38
2022-08-20T08:17:04.961Z,5.88
2022-08-20T08:18:12.168Z,5.60
2022-08-20T08:19:18.494Z,6.68
2022-08-20T08:20:21.987Z,9.00
2022-08-20T08:21:25.741Z,7.18
2022-08-20T08:22:31.876Z,6.38
2022-08-20T08:23:37.466Z,6.90
2022-08-20T08:24:42.184Z,7.07
2022-08-20T08:26:06.706Z,8.15
2022-08-20T08:27:18.998Z,8.55
2022-08-20T08:28:22.430Z,7.28
2022-08-20T08:29:24.683Z,6.80
2022-08-20T08:30:31.397Z,8.48
2022-08-20T08:31:33.709Z,5.20
2022-08-20T08:32:37.249Z,6.10
2022-08-20T08:33:40.865Z,4.22
2022-08-20T08:34:48.151Z,7.20
2022-08-20T08:35:50.321Z,8.15
2022-08-20T08:36:53.893Z,4.85
2022-08-20T08:38:00.921Z,7.03
2022-08-20T08:39:04.111Z,6.30
2022-08-20T08:40:09.490Z,9.63
2022-08-20T08:41:17.743Z,7.15
2022-08-20T08:42:28.912Z,7.15
2022-08-20T08:43:32.823Z,4.65
2022-08-20T08:44:42.657Z,7.32
2022-08-20T08:45:48.282Z,6.60
2022-08-20T08:46:56.225Z,8.65
2022-08-20T08:47:59.263Z,6.82
2022-08-20T08:49:02.878Z,7.50
2022-08-20T08:50:06.862Z,7.63
2022-08-20T08:51:12.975Z,5.70
2022-08-20T08:52:22.355Z,7.13
2022-08-20T08:53:29.766Z,9.23
2022-08-20T08:54:35.187Z,10.85
2022-08-20T08:55:38.676Z,7.07
2022-08-20T08:56:43.296Z,6.13
2022-08-20T08:57:55.686Z,7.18
2022-08-20T08:59:01.825Z,8.63
2022-08-20T09:00:08.926Z,6.38
2022-08-20T09:01:55.424Z,9.70
2022-08-20T09:02:38.997Z,6.80
2022-08-20T09:03:44.497Z,9.35
2022-08-20T09:04:47.265Z,13.55
2022-08-20T09:05:53.362Z,7.00
2022-08-20T09:06:56.648Z,7.32
2022-08-20T09:08:01.453Z,9.52
2022-08-20T09:09:07.136Z,10.48
2022-08-20T09:10:09.588Z,8.98
2022-08-20T09:11:14.161Z,8.00
2022-08-20T09:12:19.508Z,8.82
2022-08-20T09:13:22.719Z,9.45
2022-08-20T09:14:25.064Z,6.70
2022-08-20T09:15:28.619Z,11.68
2022-08-20T09:16:52.002Z,10.05
2022-08-20T09:17:55.054Z,6.35
2022-08-20T09:19:00.194Z,10.18
2022-08-20T09:20:04.107Z,12.68
2022-08-20T09:21:07.145Z,8.75
2022-08-20T09:22:11.224Z,8.98
2022-08-20T09:23:13.441Z,6.80
2022-08-20T09:24:16.751Z,12.52
2022-08-20T09:25:19.768Z,8.73
2022-08-20T09:26:24.464Z,10.27
2022-08-20T09:27:32.117Z,12.70
2022-08-20T09:28:37.264Z,8.35
2022-08-20T09:29:39.966Z,7.88
2022-08-20T09:30:43.185Z,7.53
2022-08-20T09:31:47.775Z,10.25
2022-08-20T09:32:50.892Z,11.45
2022-08-20T09:33:54.732Z,12.48
2022-08-20T09:34:57.070Z,9.73
2022-08-20T09:36:00.240Z,12.32
2022-08-20T09:37:03.509Z,10.90
2022-08-20T09:38:06.167Z,10.48
2022-08-20T09:39:10.057Z,11.63
2022-08-20T09:40:12.381Z,8.93
2022-08-20T09:41:15.625Z,9.25
2022-08-20T09:42:21.988Z,8.57
2022-08-20T09:43:25.193Z,8.85
2022-08-20T09:44:27.419Z,8.18
2022-08-20T09:45:31.835Z,12.50
2022-08-20T09:46:34.077Z,11.00
2022-08-20T09:47:37.750Z,9.50
2022-08-20T09:48:43.509Z,12.60
2022-08-20T09:49:46.021Z,13.73
2022-08-20T09:50:50.908Z,12.32
2022-08-20T09:51:53.208Z,10.48
2022-08-20T09:52:58.257Z,13.50
2022-08-20T09:54:02.345Z,10.98
2022-08-20T09:55:16.056Z,9.30
2022-08-20T09:56:19.836Z,10.63
2022-08-20T09:57:23.919Z,8.85
2022-08-20T09:58:35.022Z,15.93
2022-08-20T09:59:37.698Z,10.77
2022-08-20T10:00:41.662Z,9.52
2022-08-20T10:01:43.966Z,10.52
2022-08-20T10:02:47.437Z,14.70
2022-08-20T10:03:50.675Z,11.82
2022-08-20T10:04:54.447Z,11.95
2022-08-20T10:06:01.010Z,9.48
2022-08-20T10:07:07.704Z,10.85
2022-08-20T10:08:12.804Z,12.32
2022-08-20T10:09:15.512Z,9.02
2022-08-20T10:10:18.777Z,8.90
2022-08-20T10:11:21.132Z,12.02
2022-08-20T10:12:25.911Z,9.63
2022-08-20T10:13:28.081Z,8.60
2022-08-20T10:14:31.464Z,10.57
2022-08-20T10:15:33.605Z,12.20
2022-08-20T10:16:36.882Z,9.10
2022-08-20T10:17:41.043Z,10.68
2022-08-20T10:18:43.384Z,11.55
2022-08-20T10:19:46.556Z,11.73
2022-08-20T10:20:48.752Z,10.40
2022-08-20T10:21:52.506Z,10.95
2022-08-20T10:22:55.650Z,9.48
2022-08-20T10:23:58.390Z,10.93
2022-08-20T10:25:01.704Z,12.43
2022-08-20T10:26:04.433Z,10.50
2022-08-20T10:27:08.073Z,10.70
2022-08-20T10:28:12.568Z,12.30
2022-08-20T10:29:15.290Z,9.85
2022-08-20T10:30:18.777Z,10.38
2022-08-20T10:31:20.881Z,9.60
2022-08-20T10:32:24.178Z,9.73
2022-08-20T10:33:26.422Z,13.75
2022-08-20T10:34:29.652Z,11.10
2022-08-20T10:35:31.857Z,11.02
2022-08-20T10:36:35.118Z,10.48
2022-08-20T10:37:38.339Z,7.60
2022-08-20T10:38:40.506Z,8.60
2022-08-20T10:39:43.996Z,11.90
2022-08-20T10:40:52.190Z,11.73
2022-08-20T10:41:55.840Z,10.80
2022-08-20T10:42:59.389Z,9.10
2022-08-20T10:44:04.598Z,13.38
2022-08-20T10:45:07.881Z,10.25
2022-08-20T10:46:11.126Z,9.75
2022-08-20T10:47:18.663Z,10.10
2022-08-20T10:48:22.702Z,8.80
2022-08-20T10:49:24.975Z,10.20
2022-08-20T10:50:30.345Z,10.52
2022-08-20T10:51:34.245Z,10.45
2022-08-20T10:52:37.250Z,10.82
2022-08-20T10:53:40.436Z,8.52
2022-08-20T10:54:42.740Z,10.30
2022-08-20T10:55:46.329Z,10.25
2022-08-20T10:56:48.513Z,14.18
2022-08-20T10:57:51.753Z,7.93
2022-08-20T10:58:53.962Z,7.25
2022-08-20T11:00:00.125Z,12.73
2022-08-20T11:01:02.435Z,10.98
2022-08-20T11:02:05.779Z,9.05
2022-08-20T11:03:08.031Z,13.88
2022-08-20T11:04:11.218Z,7.28
2022-08-20T11:05:13.762Z,8.07
2022-08-20T11:06:17.072Z,9.20
2022-08-20T11:07:50.431Z,11.15
2022-08-20T11:08:47.471Z,13.13
2022-08-20T11:09:50.513Z,7.97
2022-08-20T11:10:53.927Z,9.88
2022-08-20T11:11:56.142Z,8.73
2022-08-20T11:12:59.376Z,7.63
2022-08-20T11:14:01.588Z,9.93
2022-08-20T11:15:09.298Z,12.27
2022-08-20T11:16:12.674Z,11.75
2022-08-20T11:17:20.566Z,9.52
2022-08-20T11:18:23.725Z,12.13
2022-08-20T11:19:25.949Z,10.40
2022-08-20T11:20:31.494Z,8.77
2022-08-20T11:21:34.613Z,6.38
2022-08-20T11:22:37.363Z,8.73
2022-08-20T11:23:40.565Z,11.32
2022-08-20T11:24:42.891Z,10.02
2022-08-20T11:25:50.699Z,9.73
2022-08-20T11:26:53.480Z,11.57
2022-08-20T11:27:57.887Z,13.50
2022-08-20T11:29:00.102Z,11.73
2022-08-20T11:30:03.983Z,7.53
2022-08-20T11:31:08.598Z,10.27
2022-08-20T11:32:10.846Z,13.43
2022-08-20T11:33:14.050Z,10.57
2022-08-20T11:34:16.417Z,11.20
2022-08-20T11:36:46.202Z,9.38
2022-08-20T11:37:48.479Z,10.85
2022-08-20T11:38:51.673Z,9.38
2022-08-20T11:39:54.363Z,12.00
2022-08-20T11:40:57.554Z,11.70
2022-08-20T11:41:59.705Z,9.50
2022-08-20T11:43:18.605Z,7.72
2022-08-20T11:44:21.891Z,9.68
2022-08-20T11:45:24.145Z,7.07
2022-08-20T11:46:28.862Z,9.68
2022-08-20T11:47:33.742Z,6.38
2022-08-20T11:48:36.933Z,9.55
2022-08-20T11:49:39.128Z,10.65
2022-08-20T11:50:42.396Z,13.10
2022-08-20T11:51:50.053Z,9.43
2022-08-20T11:52:53.532Z,9.73
2022-08-20T11:53:55.751Z,9.63
2022-08-20T11:54:59.545Z,6.85
2022-08-20T11:56:02.886Z,9.60
2022-08-20T11:57:06.099Z,10.52
2022-08-20T11:58:10.627Z,8.57
2022-08-20T11:59:14.316Z,9.63
2022-08-20T12:00:21.704Z,9.45
2022-08-20T12:01:37.273Z,6.93
2022-08-20T12:02:40.738Z,8.10
2022-08-20T12:03:44.189Z,10.23
2022-08-20T12:04:47.369Z,9.95
2022-08-20T12:05:49.999Z,7.75
2022-08-20T12:06:53.142Z,6.47
2022-08-20T12:07:55.278Z,7.95
2022-08-20T12:08:58.519Z,11.77
2022-08-20T12:10:00.659Z,10.05
2022-08-20T12:11:04.628Z,6.03
2022-08-20T12:12:07.573Z,5.97
2022-08-20T12:13:10.840Z,9.80
2022-08-20T12:14:13.099Z,6.25
2022-08-20T12:15:16.251Z,6.57
2022-08-20T12:16:19.319Z,7.57
2022-08-20T12:17:26.819Z,7.93
2022-08-20T12:18:29.239Z,11.68
2022-08-20T12:19:32.420Z,7.50
2022-08-20T12:20:36.006Z,8.15
2022-08-20T12:21:38.453Z,9.02
2022-08-20T12:22:42.237Z,6.55
2022-08-20T12:23:45.163Z,4.13
2022-08-20T12:24:48.708Z,10.05
2022-08-20T12:25:51.906Z,5.38
2022-08-20T12:26:54.107Z,7.80
2022-08-20T12:27:57.543Z,5.65
2022-08-20T12:29:00.711Z,6.10
2022-08-20T12:30:06.821Z,6.05
2022-08-20T12:31:10.045Z,6.03
2022-08-20T12:32:12.856Z,7.30
2022-08-20T12:33:17.546Z,8.85
2022-08-20T12:34:19.706Z,6.32
2022-08-20T12:35:23.005Z,10.00
2022-08-20T12:36:25.119Z,7.13
2022-08-20T12:37:30.805Z,8.48
2022-08-20T12:38:34.187Z,5.68
2022-08-20T12:39:39.248Z,8.38
2022-08-20T12:40:42.467Z,5.53
2022-08-20T12:41:45.196Z,5.90
2022-08-20T12:42:48.903Z,7.65
2022-08-20T12:43:51.075Z,5.68
2022-08-20T12:44:54.258Z,10.07
2022-08-20T12:45:57.452Z,4.82
2022-08-20T12:47:07.746Z,10.05
2022-08-20T12:48:13.447Z,8.93
2022-08-20T12:49:17.011Z,7.72
2022-08-20T12:50:23.017Z,7.30
2022-08-20T12:51:26.265Z,9.13
2022-08-20T12:52:30.108Z,6.00
2022-08-20T12:53:33.334Z,6.80
2022-08-20T12:54:36.680Z,10.80
2022-08-20T12:55:39.829Z,11.98
2022-08-20T12:56:42.004Z,9.95
2022-08-20T12:57:47.657Z,9.40
2022-08-20T12:58:49.829Z,5.85
2022-08-20T12:59:52.989Z,6.13
2022-08-20T13:00:56.133Z,8.52
2022-08-20T13:01:58.397Z,6.38
2022-08-20T13:03:17.124Z,7.95
2022-08-20T13:04:21.100Z,7.10
2022-08-20T13:05:24.998Z,7.32
2022-08-20T13:06:28.480Z,5.03
2022-08-20T13:07:31.296Z,8.80
2022-08-20T13:08:34.535Z,5.95
2022-08-20T13:09:36.729Z,9.10
2022-08-20T13:10:46.337Z,8.35
2022-08-20T13:11:48.508Z,8.32
2022-08-20T13:12:51.656Z,6.22
2022-08-20T13:13:53.870Z,8.32
2022-08-20T13:14:57.023Z,4.43
2022-08-20T13:15:59.170Z,9.82
2022-08-20T13:17:03.008Z,6.22
2022-08-20T13:18:06.469Z,5.95
2022-08-20T13:19:09.649Z,8.88
2022-08-20T13:20:17.327Z,7.32
2022-08-20T13:21:23.892Z,9.90
2022-08-20T13:22:26.316Z,11.38
2022-08-20T13:23:29.436Z,8.18
2022-08-20T13:24:31.876Z,7.45
2022-08-20T13:25:35.277Z,8.02
2022-08-20T13:26:37.459Z,6.15
2022-08-20T13:27:42.603Z,7.00
2022-08-20T13:28:44.822Z,8.93
2022-08-20T13:29:48.488Z,11.07
2022-08-20T13:30:51.868Z,5.53
2022-08-20T13:31:54.038Z,6.38
2022-08-20T13:32:57.328Z,6.85
2022-08-20T13:33:59.619Z,7.65
2022-08-20T13:35:02.970Z,8.10
2022-08-20T13:36:06.961Z,10.50
2022-08-20T13:37:14.052Z,7.38
2022-08-20T13:38:17.282Z,6.15
2022-08-20T13:39:19.446Z,6.47
2022-08-20T13:40:22.852Z,7.95
2022-08-20T13:41:25.078Z,6.30
2022-08-20T13:42:29.248Z,6.80
2022-08-20T13:43:31.513Z,6.20
2022-08-20T13:44:34.821Z,7.15
2022-08-20T13:45:38.870Z,6.43
2022-08-20T13:46:41.056Z,7.55
2022-08-20T13:47:44.774Z,6.05
2022-08-20T13:48:46.955Z,5.15
2022-08-20T13:49:55.621Z,8.88
2022-08-20T13:50:58.784Z,8.25
2022-08-20T13:52:02.590Z,5.53
2022-08-20T13:53:07.173Z,6.40
2022-08-20T13:54:10.780Z,7.38
2022-08-20T13:55:16.339Z,5.65
2022-08-20T13:56:18.516Z,6.88
2022-08-20T13:57:24.798Z,6.32
2022-08-20T13:58:26.978Z,7.32
2022-08-20T13:59:30.162Z,9.93
2022-08-20T14:00:34.035Z,10.07
2022-08-20T14:01:37.282Z,8.88
2022-08-20T14:02:39.921Z,6.72
2022-08-20T14:03:43.156Z,8.43
2022-08-20T14:04:45.404Z,4.93
2022-08-20T14:05:48.651Z,7.68
2022-08-20T14:06:50.862Z,5.35
2022-08-20T14:07:55.506Z,8.05
2022-08-20T14:08:57.638Z,3.92
2022-08-20T14:10:08.856Z,6.45
2022-08-20T14:11:12.852Z,5.40
2022-08-20T14:12:22.628Z,6.22